Evanston Uinta County Burns Field
KEVW : now visible

Airfield :











YOU CAN JOIN US ON...

 
LOGIN :

Register | Disclaimer

   EN    FR    IT 

 









Legend :    VFR   Marginal VFR   IFR   Intensive IFR   Very Intensive IFR
Visi :
Ceiling :
>= 8 km
>= 3000ft
5 to 8 km
1000 to 3000 ft
1500m to 5 km
500 to 1000 ft
800 to 1500m
200 to 500 ft
< 800m
< 200 ft
Symbols :   Thunderstorms  Fog  Heavy snow  Heavy precipitations  Wind > 20 kt






- Airport Elevation : 7143 ft


KEVW - Evanston Uinta County Burns Field

CURRENT METAR :
  • 250353Z AUTO 21010KT 10SM OVC090 07/02 A2992 RMK AO2 SLP087 T00720017

EXPIRED METARs :
  • 250253Z AUTO 21013KT 10SM OVC100 08/02 A2992 RMK AO2 PK WND 21029/0202 SLP091 T00780017 53003
  • 250153Z AUTO 21019G26KT 10SM OVC100 09/01 A2991 RMK AO2 PK WND 21027/0112 SLP096 T00890011
  • 250053Z AUTO 21017G24KT 10SM FEW110 11/00 A2991 RMK AO2 PK WND 21031/0010 SLP097 T01110000
  • 242353Z AUTO 21023G29KT 10SM OVC080 13/M02 A2991 RMK AO2 PK WND 20032/2333 SLP091 T01281017 10172 20122 55008

TAF KEVW
Valid from the 25 at 00:00 until the 26 at 00:00 UTC


242320Z 2500/2524 25015G25KT P6SM VCSH SCT060 BKN080
FM250300 16008KT P6SM VCSH FEW030 SCT050 BKN080
FM251200 23010KT P6SM VCSH SCT030 BKN060
FM251700 25012G22KT P6SM -TSRA SCT020 BKN040CB
FM252000 25012G22KT P6SM VCSH SCT030 BKN050
KZLC FIR / North America



MET'MAP, your aeronautical weather chart ! - Copyright ORBIFLY December 2007 - Disclaimer

ORBIFLY MET'MAP TEAM :

Programming & Development : Alexandra Zaïnal
Original concept : Baudouin d'Aumeries
Technical & hardware support : Manuel Goepfert
Assistance : Marc-Olivier Méhu




SOURCES & CREDITS :

   NOAA       Earth
Advisory